createdAt,value
2018-10-21T00:01:43.448Z,13.10
2018-10-21T00:04:12.162Z,12.63
2018-10-21T00:06:40.903Z,12.27
2018-10-21T00:09:11.395Z,12.13
2018-10-21T00:11:40.103Z,12.13
2018-10-21T00:14:09.329Z,11.53
2018-10-21T00:16:38.052Z,12.13
2018-10-21T00:19:06.865Z,12.63
2018-10-21T00:21:35.701Z,12.20
2018-10-21T00:24:04.759Z,12.40
2018-10-21T00:26:33.597Z,12.17
2018-10-21T00:29:02.547Z,11.63
2018-10-21T00:31:31.404Z,13.03
2018-10-21T00:34:00.110Z,11.90
2018-10-21T00:36:28.864Z,12.73
2018-10-21T00:39:01.788Z,13.17
2018-10-21T00:41:30.460Z,13.03
2018-10-21T00:43:59.231Z,12.47
2018-10-21T00:46:28.013Z,13.00
2018-10-21T00:48:56.726Z,12.87
2018-10-21T00:51:25.773Z,12.60
2018-10-21T00:53:54.274Z,12.60
2018-10-21T00:56:22.975Z,13.17
2018-10-21T00:58:51.821Z,14.10
2018-10-21T01:01:20.458Z,12.97
2018-10-21T01:03:49.032Z,14.40
2018-10-21T01:06:17.962Z,13.77
2018-10-21T01:08:46.593Z,13.37
2018-10-21T01:11:15.345Z,13.97
2018-10-21T01:13:44.181Z,13.00
2018-10-21T01:16:13.023Z,13.50
2018-10-21T01:18:41.352Z,13.97
2018-10-21T01:21:10.083Z,13.47
2018-10-21T01:23:38.904Z,13.97
2018-10-21T01:26:08.406Z,13.40
2018-10-21T01:28:37.101Z,13.53
2018-10-21T01:31:06.329Z,13.77
2018-10-21T01:33:35.113Z,12.70
2018-10-21T01:36:03.957Z,12.90
2018-10-21T01:38:32.465Z,13.17
2018-10-21T01:41:01.176Z,13.47
2018-10-21T01:43:31.114Z,13.60
2018-10-21T01:46:01.369Z,13.33
2018-10-21T01:48:30.643Z,13.57
2018-10-21T01:50:59.406Z,13.17
2018-10-21T01:53:28.076Z,14.13
2018-10-21T01:55:56.925Z,13.20
2018-10-21T01:58:25.581Z,12.97
2018-10-21T02:00:54.338Z,13.30
2018-10-21T02:03:22.943Z,13.70
2018-10-21T02:05:51.882Z,13.60
2018-10-21T02:08:20.362Z,13.47
2018-10-21T02:10:49.034Z,13.73
2018-10-21T02:13:17.477Z,13.03
2018-10-21T02:15:46.037Z,12.90
2018-10-21T02:18:14.884Z,13.17
2018-10-21T02:20:43.341Z,13.77
2018-10-21T02:23:12.088Z,12.93
2018-10-21T02:25:40.964Z,13.80
2018-10-21T02:28:09.885Z,13.37
2018-10-21T02:30:39.518Z,11.27
2018-10-21T02:33:08.097Z,12.00
2018-10-21T02:35:36.950Z,13.10
2018-10-21T02:38:06.044Z,12.97
2018-10-21T02:41:44.106Z,12.73
2018-10-21T02:44:16.976Z,12.97
2018-10-21T02:46:46.182Z,12.97
2018-10-21T02:49:15.549Z,13.33
2018-10-21T02:51:48.744Z,13.77
2018-10-21T02:54:22.063Z,13.13
2018-10-21T02:56:50.781Z,13.87
2018-10-21T02:59:19.359Z,13.73
2018-10-21T03:01:47.957Z,13.50
2018-10-21T03:04:16.861Z,14.00
2018-10-21T03:06:45.513Z,14.03
2018-10-21T03:09:14.487Z,14.10
2018-10-21T03:11:43.401Z,13.53
2018-10-21T03:14:12.145Z,14.17
2018-10-21T03:16:40.869Z,14.63
2018-10-21T03:19:09.235Z,14.17
2018-10-21T03:21:38.115Z,14.50
2018-10-21T03:24:06.941Z,14.17
2018-10-21T03:26:35.467Z,14.27
2018-10-21T03:29:04.313Z,13.83
2018-10-21T03:31:32.781Z,13.87
2018-10-21T03:34:01.408Z,12.97
2018-10-21T03:36:29.958Z,14.00
2018-10-21T03:38:59.238Z,14.30
2018-10-21T03:41:27.760Z,14.00
2018-10-21T03:44:01.686Z,14.17
2018-10-21T03:46:30.492Z,13.80
2018-10-21T03:48:59.316Z,13.70
2018-10-21T03:51:27.811Z,15.00
2018-10-21T03:53:56.310Z,14.53
2018-10-21T03:56:24.950Z,14.60
2018-10-21T03:58:53.410Z,15.30
2018-10-21T04:01:22.027Z,14.70
2018-10-21T04:03:50.806Z,13.93
2018-10-21T04:06:19.296Z,14.50
2018-10-21T04:08:48.015Z,14.43
2018-10-21T04:11:16.870Z,15.13
2018-10-21T04:13:45.762Z,15.27
2018-10-21T04:16:14.363Z,15.13
2018-10-21T04:18:42.925Z,14.40
2018-10-21T04:21:11.810Z,14.90
2018-10-21T04:23:40.494Z,15.93
2018-10-21T04:26:09.170Z,16.10
2018-10-21T04:28:37.857Z,14.40
2018-10-21T04:31:06.590Z,14.37
2018-10-21T04:33:42.473Z,16.20
2018-10-21T04:36:13.423Z,14.83
2018-10-21T04:39:51.212Z,16.00
2018-10-21T04:42:19.985Z,15.20
2018-10-21T04:44:49.024Z,15.30
2018-10-21T04:47:17.704Z,15.93
2018-10-21T04:49:46.189Z,15.60
2018-10-21T04:52:14.926Z,14.50
2018-10-21T04:54:43.769Z,15.63
2018-10-21T04:57:12.726Z,15.60
2018-10-21T04:59:41.189Z,15.23
2018-10-21T05:02:10.035Z,16.03
2018-10-21T05:04:38.727Z,15.83
2018-10-21T05:07:07.813Z,15.50
2018-10-21T05:09:38.768Z,15.63
2018-10-21T05:12:07.880Z,16.43
2018-10-21T05:14:36.487Z,16.53
2018-10-21T05:17:05.194Z,15.07
2018-10-21T05:19:33.912Z,14.77
2018-10-21T05:22:02.359Z,16.97
2018-10-21T05:24:30.884Z,16.20
2018-10-21T05:26:59.767Z,15.17
2018-10-21T05:29:28.452Z,14.73
2018-10-21T05:31:57.141Z,15.90
2018-10-21T05:34:26.285Z,15.87
2018-10-21T05:36:55.102Z,16.00
2018-10-21T05:39:23.819Z,16.40
2018-10-21T05:41:52.225Z,15.20
2018-10-21T05:44:20.988Z,15.87
2018-10-21T05:46:53.124Z,16.23
2018-10-21T05:49:22.016Z,16.80
2018-10-21T05:51:51.293Z,16.60
2018-10-21T05:54:20.093Z,16.30
2018-10-21T05:56:49.858Z,17.60
2018-10-21T05:59:18.787Z,17.13
2018-10-21T06:01:47.935Z,16.77
2018-10-21T06:04:17.348Z,17.30
2018-10-21T06:06:45.888Z,17.13
2018-10-21T06:09:15.110Z,16.07
2018-10-21T06:11:43.902Z,16.93
2018-10-21T06:14:22.380Z,17.40
2018-10-21T06:16:58.938Z,17.83
2018-10-21T06:19:35.003Z,17.03
2018-10-21T06:22:03.760Z,16.40
2018-10-21T06:24:32.333Z,17.43
2018-10-21T06:27:01.290Z,18.27
2018-10-21T06:29:29.918Z,17.63
2018-10-21T06:31:58.749Z,19.53
2018-10-21T06:34:44.375Z,18.13
2018-10-21T06:37:30.973Z,18.00
2018-10-21T06:42:46.720Z,18.80
2018-10-21T06:45:33.630Z,18.33
2018-10-21T06:50:51.288Z,18.57
2018-10-21T06:53:34.802Z,18.67
2018-10-21T06:56:19.420Z,18.43
2018-10-21T06:59:07.801Z,18.23
2018-10-21T07:01:54.594Z,17.20
2018-10-21T07:04:42.665Z,18.40
2018-10-21T07:07:17.088Z,17.17
2018-10-21T07:09:48.373Z,17.43
2018-10-21T07:12:20.015Z,18.90
2018-10-21T07:14:49.618Z,19.00
2018-10-21T07:17:18.061Z,16.70
2018-10-21T07:19:46.811Z,19.17
2018-10-21T07:22:15.700Z,18.10
2018-10-21T07:24:44.580Z,17.07
2018-10-21T07:27:13.280Z,18.80
2018-10-21T07:29:41.899Z,19.07
2018-10-21T07:32:10.619Z,17.77
2018-10-21T07:34:39.383Z,18.77
2018-10-21T07:37:07.948Z,17.73
2018-10-21T07:39:36.658Z,18.30
2018-10-21T07:42:05.615Z,18.37
2018-10-21T07:44:34.469Z,19.23
2018-10-21T07:47:03.141Z,19.37
2018-10-21T07:49:31.632Z,19.23
2018-10-21T07:52:03.193Z,19.07
2018-10-21T07:54:31.886Z,19.43
2018-10-21T07:57:00.527Z,19.20
2018-10-21T07:59:29.021Z,19.40
2018-10-21T08:01:57.732Z,19.10
2018-10-21T08:04:26.613Z,19.67
2018-10-21T08:07:06.335Z,19.40
2018-10-21T08:09:34.801Z,20.60
2018-10-21T08:12:03.345Z,20.13
2018-10-21T08:14:32.255Z,21.40
2018-10-21T08:17:01.069Z,21.57
2018-10-21T08:19:29.762Z,20.53
2018-10-21T08:21:58.297Z,22.30
2018-10-21T08:24:27.133Z,21.13
2018-10-21T08:26:55.820Z,21.93
2018-10-21T08:29:25.562Z,22.60
2018-10-21T08:31:54.441Z,22.03
2018-10-21T08:34:22.956Z,21.50
2018-10-21T08:36:51.837Z,21.00
2018-10-21T08:39:21.867Z,21.07
2018-10-21T08:41:50.371Z,20.73
2018-10-21T08:44:32.249Z,21.47
2018-10-21T08:47:19.121Z,20.83
2018-10-21T08:50:06.460Z,20.93
2018-10-21T08:52:48.601Z,21.20
2018-10-21T08:55:17.141Z,20.37
2018-10-21T08:57:45.822Z,20.50
2018-10-21T09:00:16.245Z,20.23
2018-10-21T09:02:46.507Z,20.63
2018-10-21T09:05:17.247Z,19.93
2018-10-21T09:07:47.021Z,21.20
2018-10-21T09:10:17.747Z,18.97
2018-10-21T09:12:46.328Z,20.83
2018-10-21T09:15:16.607Z,20.60
2018-10-21T09:17:53.485Z,21.00
2018-10-21T09:20:25.237Z,21.30
2018-10-21T09:22:54.223Z,21.67
2018-10-21T09:25:22.864Z,21.40
2018-10-21T09:27:51.786Z,22.00
2018-10-21T09:30:20.500Z,22.80
2018-10-21T09:32:49.769Z,21.67
2018-10-21T09:35:19.558Z,21.43
2018-10-21T09:37:49.901Z,20.83
2018-10-21T09:40:20.480Z,22.50
2018-10-21T09:43:13.501Z,20.57
2018-10-21T09:45:42.284Z,21.43
2018-10-21T09:48:13.892Z,23.30
2018-10-21T09:50:42.739Z,23.50
2018-10-21T09:53:15.231Z,23.97
2018-10-21T09:55:43.994Z,23.27
2018-10-21T09:58:12.701Z,22.77
2018-10-21T10:02:55.825Z,22.70
2018-10-21T10:05:28.463Z,22.30
2018-10-21T10:07:57.244Z,23.87
2018-10-21T10:10:26.641Z,23.67
2018-10-21T10:12:56.778Z,23.20
2018-10-21T10:15:24.789Z,23.53
2018-10-21T10:17:53.592Z,21.83
2018-10-21T10:20:23.337Z,28.23
2018-10-21T10:22:52.411Z,25.27
2018-10-21T10:25:21.004Z,22.23
2018-10-21T10:27:55.937Z,21.43
2018-10-21T10:30:25.282Z,21.30
2018-10-21T10:32:55.612Z,22.03
2018-10-21T10:35:23.675Z,20.53
2018-10-21T10:37:52.840Z,21.27
2018-10-21T10:40:22.620Z,21.93
2018-10-21T10:42:51.324Z,22.57
2018-10-21T10:45:19.904Z,22.60
2018-10-21T10:47:49.541Z,21.40
2018-10-21T10:50:28.409Z,21.73
2018-10-21T10:52:58.002Z,22.47
2018-10-21T10:55:35.675Z,23.10
2018-10-21T10:58:06.746Z,21.60
2018-10-21T11:00:37.903Z,20.53
2018-10-21T11:03:17.831Z,20.37
2018-10-21T11:05:50.269Z,18.90
2018-10-21T11:08:30.154Z,20.87
2018-10-21T11:11:07.337Z,20.30
2018-10-21T11:13:39.881Z,20.07
2018-10-21T11:16:16.115Z,19.90
2018-10-21T11:18:49.689Z,18.87
2018-10-21T11:21:33.306Z,18.97
2018-10-21T11:24:38.011Z,19.33
2018-10-21T11:27:15.767Z,19.10
2018-10-21T11:29:49.217Z,17.90
2018-10-21T11:32:40.566Z,17.87
2018-10-21T11:35:18.163Z,17.93
2018-10-21T11:37:55.222Z,17.30
2018-10-21T11:40:29.757Z,17.33
2018-10-21T11:43:07.678Z,15.60
2018-10-21T11:45:39.473Z,15.30
2018-10-21T11:48:10.087Z,14.73
2018-10-21T11:50:45.009Z,14.33
2018-10-21T11:53:17.148Z,13.67
2018-10-21T11:55:46.018Z,12.30
2018-10-21T11:58:16.949Z,12.13
2018-10-21T12:00:48.117Z,12.03
2018-10-21T12:03:16.288Z,12.13
2018-10-21T12:05:46.714Z,13.27
2018-10-21T12:08:18.031Z,14.17
2018-10-21T12:10:51.120Z,13.97
2018-10-21T12:13:23.826Z,14.33
2018-10-21T12:15:53.447Z,14.97
2018-10-21T12:18:31.552Z,14.13
2018-10-21T12:21:12.904Z,13.93
2018-10-21T12:23:43.519Z,14.33
2018-10-21T12:26:21.430Z,14.03
2018-10-21T12:28:53.628Z,13.70
2018-10-21T12:31:22.795Z,14.37
2018-10-21T12:34:06.480Z,12.77
2018-10-21T12:36:39.294Z,13.20
2018-10-21T12:39:13.583Z,13.20
2018-10-21T12:41:42.986Z,13.33
2018-10-21T12:44:13.886Z,12.83
2018-10-21T12:46:48.298Z,13.07
2018-10-21T12:49:18.365Z,13.53
2018-10-21T12:51:49.073Z,13.03
2018-10-21T12:54:22.948Z,13.87
2018-10-21T12:57:01.038Z,13.07
2018-10-21T12:59:31.973Z,14.80
2018-10-21T13:02:03.696Z,14.00
2018-10-21T13:04:45.834Z,14.27
2018-10-21T13:07:18.345Z,13.10
2018-10-21T13:09:49.970Z,13.70
2018-10-21T13:12:37.166Z,13.83
2018-10-21T13:15:09.434Z,13.83
2018-10-21T13:17:47.176Z,13.07
2018-10-21T13:20:24.727Z,13.30
2018-10-21T13:22:56.327Z,12.63
2018-10-21T13:25:28.043Z,12.40
2018-10-21T13:27:59.169Z,12.13
2018-10-21T13:30:30.457Z,12.00
2018-10-21T13:33:01.782Z,12.27
2018-10-21T13:35:35.662Z,10.40
2018-10-21T13:38:10.749Z,11.93
2018-10-21T13:40:47.671Z,10.03
2018-10-21T13:43:36.117Z,9.90
2018-10-21T13:46:06.742Z,7.20
2018-10-21T13:48:37.609Z,7.63
2018-10-21T13:51:12.515Z,6.50
2018-10-21T13:53:41.254Z,7.07
2018-10-21T13:56:16.568Z,6.43
2018-10-21T13:58:50.926Z,6.30
2018-10-21T14:01:27.749Z,6.70
2018-10-21T14:04:01.797Z,6.70
2018-10-21T14:06:34.828Z,7.50
2018-10-21T14:09:14.805Z,6.87
2018-10-21T14:11:51.262Z,6.93
2018-10-21T14:14:30.296Z,7.47
2018-10-21T14:17:02.874Z,7.60
2018-10-21T14:19:40.652Z,6.83
2018-10-21T14:22:20.257Z,6.73
2018-10-21T14:24:57.928Z,7.50
2018-10-21T14:27:33.526Z,7.00
2018-10-21T14:30:10.372Z,7.80
2018-10-21T14:32:40.093Z,7.73
2018-10-21T14:35:12.604Z,7.80
2018-10-21T14:37:50.269Z,7.67
2018-10-21T14:40:23.814Z,8.17
2018-10-21T14:42:54.488Z,7.30
2018-10-21T14:45:23.708Z,7.47
2018-10-21T14:47:54.340Z,7.73
2018-10-21T14:50:23.543Z,7.77
2018-10-21T14:52:53.907Z,8.67
2018-10-21T14:55:24.255Z,8.43
2018-10-21T14:57:52.715Z,7.30
2018-10-21T15:00:29.053Z,8.40
2018-10-21T15:02:58.709Z,7.87
2018-10-21T15:05:30.533Z,8.20
2018-10-21T15:08:05.021Z,7.73
2018-10-21T15:10:35.611Z,6.93
2018-10-21T15:13:05.057Z,7.70
2018-10-21T15:15:34.371Z,6.50
2018-10-21T15:18:04.797Z,5.37
2018-10-21T15:20:35.402Z,5.20
2018-10-21T15:23:06.258Z,5.00
2018-10-21T15:25:36.649Z,4.60
2018-10-21T15:28:05.838Z,4.40
2018-10-21T15:30:34.690Z,4.80
2018-10-21T15:33:06.241Z,5.33
2018-10-21T15:35:35.242Z,5.50
2018-10-21T15:38:07.173Z,5.60
2018-10-21T15:40:37.925Z,5.23
2018-10-21T15:43:15.713Z,5.57
2018-10-21T15:45:46.002Z,5.03
2018-10-21T15:48:30.756Z,5.37
2018-10-21T15:51:11.981Z,5.90
2018-10-21T15:54:04.299Z,6.43
2018-10-21T15:56:37.106Z,5.73
2018-10-21T15:59:08.530Z,5.87
2018-10-21T16:01:45.185Z,6.20
2018-10-21T16:04:17.431Z,6.30
2018-10-21T16:06:48.382Z,6.03
2018-10-21T16:09:19.525Z,5.57
2018-10-21T16:11:49.196Z,5.60
2018-10-21T16:14:18.529Z,5.93
2018-10-21T16:16:49.585Z,5.07
2018-10-21T16:19:21.187Z,4.73
2018-10-21T16:21:59.098Z,4.87
2018-10-21T16:24:41.584Z,4.77
2018-10-21T16:27:18.235Z,4.57
2018-10-21T16:29:51.074Z,4.40
2018-10-21T16:32:23.470Z,4.37
2018-10-21T16:34:59.911Z,4.17
2018-10-21T16:37:40.067Z,4.47
2018-10-21T16:40:15.083Z,4.30
2018-10-21T16:42:43.813Z,3.90
2018-10-21T16:45:16.700Z,3.67
2018-10-21T16:47:52.403Z,3.70
2018-10-21T16:50:21.266Z,3.30
2018-10-21T16:52:50.552Z,3.50
2018-10-21T16:55:21.906Z,3.20
2018-10-21T16:57:55.939Z,3.27
2018-10-21T17:00:26.963Z,3.60
2018-10-21T17:03:04.399Z,3.63
2018-10-21T17:05:36.243Z,5.63
2018-10-21T17:08:10.245Z,5.23
2018-10-21T17:10:44.702Z,6.40
2018-10-21T17:13:18.831Z,4.50
2018-10-21T17:15:49.114Z,4.57
2018-10-21T17:18:31.860Z,4.70
2018-10-21T17:21:06.606Z,4.80
2018-10-21T17:24:00.720Z,5.90
2018-10-21T17:26:52.457Z,5.17
2018-10-21T17:29:37.927Z,6.73
2018-10-21T17:32:25.821Z,7.30
2018-10-21T17:35:10.828Z,8.30
2018-10-21T17:37:58.627Z,8.73
2018-10-21T17:40:42.650Z,10.07
2018-10-21T17:43:29.791Z,11.37
2018-10-21T17:49:22.292Z,12.77
2018-10-21T17:52:28.316Z,12.30
2018-10-21T17:55:30.223Z,13.33
2018-10-21T17:58:37.044Z,12.70
2018-10-21T18:01:36.721Z,12.57
2018-10-21T18:07:24.800Z,13.63
2018-10-21T18:10:26.091Z,12.13
2018-10-21T18:13:10.467Z,13.17
2018-10-21T18:15:41.953Z,14.37
2018-10-21T18:18:17.830Z,14.13
2018-10-21T18:20:53.618Z,13.13
2018-10-21T18:23:27.561Z,13.57
2018-10-21T18:26:06.207Z,14.10
2018-10-21T18:28:40.077Z,14.13
2018-10-21T18:31:12.216Z,14.93
2018-10-21T18:33:46.907Z,15.43
2018-10-21T18:36:19.031Z,15.90
2018-10-21T18:38:50.818Z,15.60
2018-10-21T18:41:26.309Z,15.37
2018-10-21T18:43:58.266Z,15.43
2018-10-21T18:46:32.928Z,16.20
2018-10-21T18:49:06.664Z,15.33
2018-10-21T18:51:38.285Z,15.73
2018-10-21T18:54:12.717Z,15.50
2018-10-21T18:56:46.566Z,16.40
2018-10-21T18:59:17.427Z,16.90
2018-10-21T19:01:49.355Z,16.60
2018-10-21T19:04:24.886Z,16.17
2018-10-21T19:07:00.366Z,16.57
2018-10-21T19:09:34.524Z,17.70
2018-10-21T19:12:07.043Z,17.20
2018-10-21T19:14:41.318Z,17.40
2018-10-21T19:17:13.158Z,17.50
2018-10-21T19:19:48.374Z,18.00
2018-10-21T19:22:21.008Z,18.33
2018-10-21T19:24:51.796Z,17.80
2018-10-21T19:27:23.748Z,17.07
2018-10-21T19:29:57.279Z,18.00
2018-10-21T19:32:35.875Z,18.17
2018-10-21T19:35:09.071Z,19.10
2018-10-21T19:37:40.565Z,18.63
2018-10-21T19:40:17.736Z,18.97
2018-10-21T19:42:51.505Z,19.20
2018-10-21T19:45:23.608Z,18.97
2018-10-21T19:47:54.301Z,19.70
2018-10-21T19:50:29.237Z,19.50
2018-10-21T19:53:04.420Z,20.57
2018-10-21T19:55:39.565Z,19.97
2018-10-21T19:58:11.889Z,20.10
2018-10-21T20:00:42.991Z,23.40
2018-10-21T20:03:13.661Z,24.10
2018-10-21T20:05:49.010Z,22.10
2018-10-21T20:08:22.426Z,21.63
2018-10-21T20:10:56.060Z,20.70
2018-10-21T20:13:26.242Z,20.00
2018-10-21T20:15:57.945Z,19.10
2018-10-21T20:18:32.321Z,21.03
2018-10-21T20:21:07.480Z,21.43
2018-10-21T20:23:37.152Z,22.00
2018-10-21T20:26:07.629Z,22.10
2018-10-21T20:28:37.031Z,22.67
2018-10-21T20:31:05.986Z,22.43
2018-10-21T20:33:34.808Z,22.17
2018-10-21T20:36:04.276Z,22.97
2018-10-21T20:38:35.554Z,23.17
2018-10-21T20:41:06.783Z,23.80
2018-10-21T20:43:37.499Z,24.17
2018-10-21T20:46:07.893Z,24.10
2018-10-21T20:48:37.277Z,23.40
2018-10-21T20:51:08.553Z,23.53
2018-10-21T20:53:37.449Z,23.97
2018-10-21T20:56:07.789Z,23.60
2018-10-21T20:58:37.159Z,23.50
2018-10-21T21:01:07.481Z,22.63
2018-10-21T21:03:37.116Z,23.93
2018-10-21T21:06:06.077Z,23.97
2018-10-21T21:08:34.640Z,22.33
2018-10-21T21:11:04.828Z,24.20
2018-10-21T21:13:35.075Z,23.20
2018-10-21T21:16:03.948Z,23.77
2018-10-21T21:18:33.918Z,24.10
2018-10-21T21:21:02.868Z,23.83
2018-10-21T21:23:32.334Z,21.97
2018-10-21T21:26:01.186Z,23.80
2018-10-21T21:28:30.051Z,22.73
2018-10-21T21:30:58.749Z,21.77
2018-10-21T21:33:27.255Z,22.33
2018-10-21T21:35:56.130Z,24.00
2018-10-21T21:38:24.817Z,24.10
2018-10-21T21:40:53.325Z,23.43
2018-10-21T21:43:22.122Z,21.80
2018-10-21T21:45:50.872Z,23.80
2018-10-21T21:48:19.603Z,23.20
2018-10-21T21:50:48.206Z,23.07
2018-10-21T21:53:17.104Z,23.60
2018-10-21T21:55:45.854Z,23.10
2018-10-21T21:58:14.573Z,22.60
2018-10-21T22:00:43.148Z,22.10
2018-10-21T22:03:12.208Z,24.60
2018-10-21T22:05:40.944Z,23.90
2018-10-21T22:08:15.151Z,23.50
2018-10-21T22:10:44.035Z,23.07
2018-10-21T22:13:12.719Z,21.63
2018-10-21T22:15:41.230Z,22.30
2018-10-21T22:18:10.175Z,24.37
2018-10-21T22:20:38.808Z,22.37
2018-10-21T22:23:07.331Z,22.20
2018-10-21T22:25:35.961Z,24.70
2018-10-21T22:28:04.933Z,25.03
2018-10-21T22:30:33.777Z,23.80
2018-10-21T22:33:08.775Z,23.73
2018-10-21T22:35:37.697Z,23.80
2018-10-21T22:38:06.416Z,24.20
2018-10-21T22:40:35.264Z,23.43
2018-10-21T22:43:03.823Z,22.37
2018-10-21T22:45:32.394Z,22.63
2018-10-21T22:48:01.110Z,21.87
2018-10-21T22:50:29.531Z,22.57
2018-10-21T22:52:58.082Z,23.27
2018-10-21T22:55:26.756Z,22.13
2018-10-21T22:57:59.775Z,21.93
2018-10-21T23:00:28.946Z,21.77
2018-10-21T23:02:57.531Z,21.47
2018-10-21T23:05:26.045Z,21.97
2018-10-21T23:07:54.621Z,22.97
2018-10-21T23:10:27.095Z,21.60
2018-10-21T23:12:55.936Z,22.37
2018-10-21T23:15:24.436Z,21.53
2018-10-21T23:17:53.345Z,22.50
2018-10-21T23:20:22.225Z,22.07
2018-10-21T23:22:53.046Z,22.23
2018-10-21T23:25:23.808Z,22.43
2018-10-21T23:27:52.570Z,23.27
2018-10-21T23:30:21.346Z,23.10
2018-10-21T23:32:50.149Z,23.60
2018-10-21T23:35:18.687Z,23.30
2018-10-21T23:37:47.562Z,24.70
2018-10-21T23:40:16.439Z,24.23
2018-10-21T23:42:44.869Z,24.37
2018-10-21T23:45:13.594Z,25.07
2018-10-21T23:47:42.425Z,23.37
2018-10-21T23:50:10.913Z,23.93
2018-10-21T23:52:39.418Z,25.03
2018-10-21T23:55:07.898Z,24.70
2018-10-21T23:57:36.560Z,25.17
